Palmer, Arkansas
Current Conditions -  °F | °C
As of 7:15 PM on Saturday 22 Nov 2014 (Local Time) from KSGT Reporting Station
Overcast Overcast  
Wind Chill: 57°   Ceiling: 4800
Heat Index: 57°   Visibility: 10mi
Dew Point: 50°   Wind: 6mph
Humidity: 77%   Direction: 130°SE
Pressure: 30.01"   Gusts: NA
Location:  34.5919°N, 91.1409°W
Report Text: KSGT 230115Z AUTO 13005KT 10SM FEW039 OVC048 14/10 A3001 RMK AO1
Loading
Personal Weather Stations






























Interactive Weather Map New forecast layout! Learn more

10-Day Weather Forecast

Advertisements
Track Severe Weather on mobile